Time;durP1;ratioP1;P1;durP2;ratioP2;P2;SDS_P1;SDS_P2;PMS_P1;PMS_P2;Temp;Humidity;BMP_temperature;BMP_pressure;BME280_temperature;BME280_humidity;BME280_pressure;Samples;Min_cycle;Max_cycle;Signal;HPM_P1;HPM_P2
2023/07/09 00:00:48;;;;;;;1.63;1.13;;;19.60;99.90;;;;;;5023276;28;20455;-74
2023/07/09 00:03:15;;;;;;;2.28;1.35;;;19.60;99.90;;;;;;5040339;28;20507;-75
2023/07/09 00:05:42;;;;;;;2.22;1.45;;;19.50;99.90;;;;;;5040148;28;20134;-73
2023/07/09 00:08:33;;;;;;;1.90;1.20;;;19.50;99.90;;;;;;5040171;28;20757;-74
2023/07/09 00:11:00;;;;;;;1.85;1.38;;;19.50;99.90;;;;;;5023379;28;20049;-74
2023/07/09 00:13:27;;;;;;;1.90;1.27;;;19.40;99.90;;;;;;5039818;28;20106;-74
2023/07/09 00:15:59;;;;;;;2.00;1.40;;;19.40;99.90;;;;;;5040606;28;20466;-74
2023/07/09 00:18:27;;;;;;;1.65;1.25;;;19.40;99.90;;;;;;5022344;28;20484;-73
2023/07/09 00:20:53;;;;;;;1.75;1.27;;;19.30;99.90;;;;;;5039990;28;20057;-74
2023/07/09 00:23:20;;;;;;;2.38;1.55;;;19.30;99.90;;;;;;5005994;28;20076;-74
2023/07/09 00:25:47;;;;;;;2.00;1.30;;;19.30;99.90;;;;;;5022460;28;20854;-74
2023/07/09 00:28:15;;;;;;;2.17;1.40;;;19.20;99.90;;;;;;5039790;28;20119;-73
2023/07/09 00:30:42;;;;;;;1.83;1.33;;;19.10;99.90;;;;;;5022807;28;20063;-73
2023/07/09 00:33:11;;;;;;;2.30;1.42;;;19.10;99.90;;;;;;5022041;28;20160;-73
2023/07/09 00:35:40;;;;;;;1.40;1.08;;;19.00;99.90;;;;;;5006120;28;20818;-73
2023/07/09 00:38:13;;;;;;;1.73;1.15;;;18.90;99.90;;;;;;5006372;28;20095;-74
2023/07/09 00:40:46;;;;;;;2.08;1.40;;;18.90;99.90;;;;;;5023219;28;20501;-74
2023/07/09 00:43:15;;;;;;;1.85;1.27;;;18.90;99.90;;;;;;5021176;28;20057;-74
2023/07/09 00:45:42;;;;;;;1.75;1.20;;;18.80;99.90;;;;;;5011254;28;20049;-74
2023/07/09 00:48:12;;;;;;;1.70;1.27;;;18.80;99.90;;;;;;5022343;28;20465;-74
2023/07/09 00:50:50;;;;;;;2.08;1.40;;;18.70;99.90;;;;;;5022431;28;20060;-74
2023/07/09 00:53:29;;;;;;;1.95;1.27;;;18.60;99.90;;;;;;5006927;28;20048;-74
2023/07/09 00:56:00;;;;;;;1.60;1.20;;;18.60;99.90;;;;;;5041199;28;20227;-73
2023/07/09 00:58:27;;;;;;;1.70;1.20;;;18.50;99.90;;;;;;5025867;28;20053;-74
2023/07/09 01:00:56;;;;;;;1.83;1.40;;;18.40;99.90;;;;;;5009575;28;20049;-74
2023/07/09 01:03:29;;;;;;;1.67;1.08;;;18.40;99.90;;;;;;5025674;28;20481;-74
2023/07/09 01:05:57;;;;;;;1.75;1.40;;;18.40;99.90;;;;;;5025848;28;20055;-73
2023/07/09 01:08:24;;;;;;;2.22;1.42;;;18.40;99.90;;;;;;5025240;28;20049;-74
2023/07/09 01:10:51;;;;;;;1.92;1.27;;;18.40;99.90;;;;;;5009436;28;20071;-74
2023/07/09 01:13:19;;;;;;;2.13;1.15;;;18.50;99.90;;;;;;5024797;28;20559;-75
2023/07/09 01:15:46;;;;;;;2.13;1.35;;;18.50;99.90;;;;;;5009448;28;20052;-74
2023/07/09 01:18:14;;;;;;;1.60;1.13;;;18.50;99.90;;;;;;5025487;28;20088;-74
2023/07/09 01:20:41;;;;;;;2.03;1.30;;;18.50;99.90;;;;;;5009187;28;20052;-73
2023/07/09 01:23:08;;;;;;;1.77;1.33;;;18.60;99.90;;;;;;5025198;28;20045;-74
2023/07/09 01:25:38;;;;;;;1.67;1.10;;;18.60;99.90;;;;;;5025328;28;20071;-74
2023/07/09 01:28:04;;;;;;;1.58;1.20;;;18.60;99.90;;;;;;5024454;28;20095;-74
2023/07/09 01:30:34;;;;;;;1.75;1.20;;;18.60;99.90;;;;;;5021947;28;20132;-75
2023/07/09 01:33:01;;;;;;;1.15;0.93;;;18.70;99.90;;;;;;5042196;28;20045;-74
2023/07/09 01:35:30;;;;;;;1.58;1.10;;;18.70;99.90;;;;;;5026837;28;20115;-74
2023/07/09 01:37:56;;;;;;;2.42;1.35;;;18.70;99.90;;;;;;5044809;28;20118;-74
2023/07/09 01:40:24;;;;;;;1.70;1.10;;;18.70;99.90;;;;;;5028769;28;20143;-74
2023/07/09 01:42:59;;;;;;;1.48;1.20;;;18.70;99.90;;;;;;5045542;28;20099;-74
2023/07/09 01:45:26;;;;;;;1.95;1.40;;;18.80;99.90;;;;;;5029149;28;20488;-74
2023/07/09 01:47:55;;;;;;;2.00;1.25;;;18.80;99.90;;;;;;5026434;28;20133;-74
2023/07/09 01:50:23;;;;;;;2.38;1.60;;;18.80;99.90;;;;;;5025830;28;20510;-74
2023/07/09 01:52:51;;;;;;;1.45;1.02;;;18.90;99.90;;;;;;5028081;28;20148;-74
2023/07/09 01:55:19;;;;;;;2.28;1.30;;;18.90;99.90;;;;;;5028750;28;20049;-73
2023/07/09 01:57:45;;;;;;;2.40;1.67;;;18.90;99.90;;;;;;5028521;28;20061;-74
2023/07/09 02:00:15;;;;;;;1.65;1.00;;;18.90;99.90;;;;;;5011637;28;20597;-74
2023/07/09 02:02:43;;;;;;;1.08;0.90;;;18.90;99.90;;;;;;5028308;28;20056;-74
2023/07/09 02:05:10;;;;;;;1.95;1.17;;;18.90;99.90;;;;;;5011861;28;20481;-74
2023/07/09 02:07:37;;;;;;;1.50;1.02;;;18.90;99.90;;;;;;5028326;28;20135;-74
2023/07/09 02:10:04;;;;;;;1.15;0.95;;;18.90;99.90;;;;;;5045646;28;20455;-74
2023/07/09 02:12:31;;;;;;;1.58;1.30;;;18.90;99.90;;;;;;5045759;28;20428;-74
2023/07/09 02:14:58;;;;;;;1.85;1.25;;;18.90;99.90;;;;;;5027930;28;20098;-74
2023/07/09 02:17:25;;;;;;;1.65;1.20;;;18.90;99.90;;;;;;5028027;28;20480;-74
2023/07/09 02:19:52;;;;;;;1.63;0.95;;;18.90;99.90;;;;;;5045475;28;20536;-74
2023/07/09 02:22:19;;;;;;;3.08;1.10;;;18.90;99.90;;;;;;5012103;28;20130;-73
2023/07/09 02:24:46;;;;;;;1.25;1.00;;;18.90;99.90;;;;;;5028045;28;20403;-73
2023/07/09 02:27:18;;;;;;;1.30;1.00;;;18.90;99.90;;;;;;5027978;28;20084;-74
2023/07/09 02:29:45;;;;;;;1.67;0.95;;;18.80;99.90;;;;;;4995286;28;20068;-74
2023/07/09 02:32:16;;;;;;;1.15;0.90;;;18.80;99.90;;;;;;5045505;28;20583;-73
2023/07/09 02:34:48;;;;;;;1.10;0.73;;;18.70;99.90;;;;;;4995508;28;20045;-73
2023/07/09 02:37:17;;;;;;;2.25;1.00;;;18.70;99.90;;;;;;5012542;28;20052;-73
2023/07/09 02:39:44;;;;;;;1.25;0.85;;;18.60;99.90;;;;;;5011769;28;20060;-74
2023/07/09 02:42:13;;;;;;;1.33;0.95;;;18.60;99.90;;;;;;5045091;28;20057;-71
2023/07/09 02:44:40;;;;;;;1.48;1.00;;;18.60;99.90;;;;;;5027540;28;20060;-73
2023/07/09 02:47:07;;;;;;;1.23;0.90;;;18.50;99.90;;;;;;5027741;28;20095;-76
2023/07/09 02:49:34;;;;;;;1.55;1.10;;;18.50;99.90;;;;;;5010308;28;20067;-73
2023/07/09 02:52:01;;;;;;;1.35;0.90;;;18.50;99.90;;;;;;5027276;28;20096;-73
2023/07/09 02:54:28;;;;;;;1.63;1.00;;;18.40;99.90;;;;;;5027552;28;20209;-73
2023/07/09 02:56:55;;;;;;;1.70;1.00;;;18.40;99.90;;;;;;5027316;28;20049;-73
2023/07/09 02:59:22;;;;;;;1.70;1.20;;;18.40;99.90;;;;;;5027651;28;20408;-73
2023/07/09 03:01:49;;;;;;;1.42;1.08;;;18.30;99.90;;;;;;5011005;28;20045;-73
2023/07/09 03:04:16;;;;;;;2.13;1.20;;;18.30;99.90;;;;;;5044515;28;20390;-74
2023/07/09 03:06:43;;;;;;;2.17;1.20;;;18.30;99.90;;;;;;5010770;28;20103;-73
2023/07/09 03:09:09;;;;;;;0.95;0.85;;;18.20;99.90;;;;;;5044345;28;20088;-73
2023/07/09 03:11:36;;;;;;;1.50;1.00;;;18.20;99.90;;;;;;5026942;28;20522;-74
2023/07/09 03:14:03;;;;;;;1.40;0.98;;;18.20;99.90;;;;;;5026582;28;20052;-74
2023/07/09 03:16:32;;;;;;;1.55;1.10;;;18.10;99.90;;;;;;5027362;28;20827;-75
2023/07/09 03:18:59;;;;;;;1.30;0.80;;;18.10;99.90;;;;;;5026654;28;20045;-74
2023/07/09 03:21:26;;;;;;;1.63;0.98;;;18.10;99.90;;;;;;5027423;28;20091;-74
2023/07/09 03:23:54;;;;;;;0.90;0.77;;;18.00;99.90;;;;;;5026925;28;20044;-74
2023/07/09 03:26:20;;;;;;;1.42;0.93;;;18.00;99.90;;;;;;5026426;28;20053;-74
2023/07/09 03:28:47;;;;;;;1.70;1.00;;;18.00;99.90;;;;;;5010078;28;20045;-74
2023/07/09 03:31:15;;;;;;;1.25;0.80;;;17.90;99.90;;;;;;5027016;28;20127;-75
2023/07/09 03:33:42;;;;;;;1.92;1.27;;;17.90;99.90;;;;;;5044341;28;20129;-74
2023/07/09 03:36:08;;;;;;;1.83;1.00;;;17.90;99.90;;;;;;5044436;28;20049;-74
2023/07/09 03:38:35;;;;;;;1.70;1.00;;;17.80;99.90;;;;;;5026611;28;20080;-74
2023/07/09 03:41:02;;;;;;;1.25;0.93;;;17.80;99.90;;;;;;5026928;28;20057;-74
2023/07/09 03:43:29;;;;;;;1.90;1.00;;;17.90;99.90;;;;;;5026308;28;20072;-74
2023/07/09 03:45:58;;;;;;;0.90;0.75;;;17.90;99.90;;;;;;5027324;28;20067;-74
2023/07/09 03:48:25;;;;;;;0.77;0.60;;;18.00;99.90;;;;;;5026581;28;20045;-74
2023/07/09 03:50:52;;;;;;;1.33;0.98;;;18.00;99.90;;;;;;5026377;28;20045;-73
2023/07/09 03:53:18;;;;;;;1.27;0.60;;;18.00;99.90;;;;;;5026130;28;20468;-74
2023/07/09 03:55:46;;;;;;;1.35;0.90;;;18.00;99.90;;;;;;5026418;28;20448;-74
2023/07/09 03:58:13;;;;;;;1.27;0.90;;;18.00;99.90;;;;;;5025497;28;20057;-73
2023/07/09 04:00:40;;;;;;;1.13;0.60;;;18.00;99.90;;;;;;5010416;28;20107;-73
2023/07/09 04:03:08;;;;;;;1.48;0.80;;;18.00;99.90;;;;;;5026882;28;20041;-73
2023/07/09 04:05:35;;;;;;;1.27;0.80;;;18.10;99.90;;;;;;5026083;28;20132;-73
2023/07/09 04:08:02;;;;;;;1.42;1.27;;;18.00;99.90;;;;;;5026110;28;20447;-74
2023/07/09 04:10:30;;;;;;;1.35;0.75;;;18.00;99.90;;;;;;5025966;28;20052;-74
2023/07/09 04:12:56;;;;;;;1.35;0.90;;;18.00;99.90;;;;;;5026025;28;20045;-74
2023/07/09 04:15:23;;;;;;;0.85;0.55;;;18.00;99.90;;;;;;5026123;28;20414;-74
2023/07/09 04:17:51;;;;;;;1.38;0.85;;;18.10;99.90;;;;;;5026694;28;20326;-73
2023/07/09 04:20:18;;;;;;;1.25;0.73;;;18.10;99.90;;;;;;5009880;28;20068;-73
2023/07/09 04:22:45;;;;;;;0.93;0.70;;;18.10;99.90;;;;;;5026160;28;20049;-74
2023/07/09 04:25:12;;;;;;;1.42;0.90;;;18.10;99.90;;;;;;5026065;28;20055;-74
2023/07/09 04:27:39;;;;;;;1.02;0.80;;;18.10;99.90;;;;;;5026354;28;20049;-73
2023/07/09 04:30:12;;;;;;;1.10;0.80;;;18.10;99.90;;;;;;5025934;28;20045;-74
2023/07/09 04:32:39;;;;;;;1.10;0.90;;;18.10;99.90;;;;;;5031401;28;20053;-73
2023/07/09 04:35:06;;;;;;;0.73;0.65;;;18.10;99.90;;;;;;5029780;28;20135;-73
2023/07/09 04:37:33;;;;;;;1.17;0.85;;;18.10;99.90;;;;;;5047311;28;20428;-73
2023/07/09 04:39:59;;;;;;;1.27;0.80;;;18.10;99.90;;;;;;5029592;28;20075;-74
2023/07/09 04:42:26;;;;;;;1.08;0.90;;;18.10;99.90;;;;;;5047440;28;20127;-73
2023/07/09 04:44:53;;;;;;;0.90;0.70;;;18.10;99.90;;;;;;5047665;28;20045;-73
2023/07/09 04:47:20;;;;;;;1.25;0.75;;;18.10;99.90;;;;;;5029927;28;20072;-73
2023/07/09 04:49:47;;;;;;;1.25;0.77;;;18.20;99.90;;;;;;5047133;28;20048;-73
2023/07/09 04:52:15;;;;;;;1.30;0.70;;;18.20;99.90;;;;;;5029705;28;20527;-73
2023/07/09 04:54:44;;;;;;;1.27;0.80;;;18.20;99.90;;;;;;5029760;28;20096;-74
2023/07/09 04:57:12;;;;;;;1.20;0.77;;;18.30;99.90;;;;;;5029993;28;20779;-74
2023/07/09 04:59:38;;;;;;;0.98;0.80;;;18.20;99.90;;;;;;5012899;28;20045;-74
2023/07/09 05:02:06;;;;;;;1.50;1.05;;;18.30;99.90;;;;;;5027078;28;20049;-74
2023/07/09 05:04:32;;;;;;;1.63;0.80;;;18.30;99.90;;;;;;5013432;28;20071;-73
2023/07/09 05:06:59;;;;;;;0.95;0.70;;;18.30;99.90;;;;;;5043500;28;20130;-74
2023/07/09 05:09:26;;;;;;;1.15;0.80;;;18.30;99.90;;;;;;5009532;28;20282;-74
2023/07/09 05:11:53;;;;;;;1.42;0.82;;;18.30;99.90;;;;;;5043483;28;20076;-74
2023/07/09 05:14:20;;;;;;;0.55;0.50;;;18.40;99.90;;;;;;5025701;28;20141;-74
2023/07/09 05:16:46;;;;;;;1.85;0.80;;;18.40;99.90;;;;;;5025771;28;20149;-74
2023/07/09 05:19:13;;;;;;;1.08;0.70;;;18.40;99.90;;;;;;5025797;28;20055;-73
2023/07/09 05:21:40;;;;;;;1.25;0.73;;;18.40;99.90;;;;;;5009440;28;20055;-74
2023/07/09 05:24:07;;;;;;;1.23;0.82;;;18.50;99.90;;;;;;5045500;28;20053;-74
2023/07/09 05:26:34;;;;;;;1.52;0.75;;;18.50;99.90;;;;;;5010272;28;20167;-74
2023/07/09 05:29:02;;;;;;;1.85;0.90;;;18.50;99.90;;;;;;5008755;28;20668;-74
2023/07/09 05:31:29;;;;;;;1.00;0.60;;;18.50;99.90;;;;;;5025526;28;20048;-74
2023/07/09 05:33:56;;;;;;;1.58;0.95;;;18.60;99.90;;;;;;5024917;28;20049;-74
2023/07/09 05:36:23;;;;;;;1.27;0.85;;;18.60;99.90;;;;;;5043857;28;20071;-74
2023/07/09 05:38:50;;;;;;;2.05;1.08;;;18.60;99.90;;;;;;5011894;28;20064;-73
2023/07/09 05:41:17;;;;;;;0.82;0.70;;;18.70;99.90;;;;;;5027717;28;20237;-74
2023/07/09 05:43:44;;;;;;;0.70;0.57;;;18.80;99.90;;;;;;5024017;28;20686;-74
2023/07/09 05:46:12;;;;;;;1.15;0.70;;;18.80;99.90;;;;;;5024852;28;20601;-75
2023/07/09 05:48:39;;;;;;;0.50;0.50;;;18.80;99.90;;;;;;5008704;28;20041;-75
2023/07/09 05:51:06;;;;;;;0.93;0.70;;;18.90;99.90;;;;;;5008636;28;20053;-75
2023/07/09 05:53:33;;;;;;;1.45;0.88;;;18.90;99.90;;;;;;5045052;28;20194;-75
2023/07/09 05:56:00;;;;;;;1.15;0.80;;;18.90;99.90;;;;;;5028268;28;20215;-75
2023/07/09 05:58:27;;;;;;;1.83;0.70;;;18.90;99.90;;;;;;5027254;28;20645;-75
2023/07/09 06:00:55;;;;;;;1.10;0.60;;;18.90;99.90;;;;;;5027497;28;20118;-73
2023/07/09 06:03:24;;;;;;;1.25;0.75;;;18.90;99.90;;;;;;5008372;28;20057;-74
2023/07/09 06:05:51;;;;;;;0.90;0.73;;;18.90;99.90;;;;;;5024569;28;20057;-74
2023/07/09 06:08:20;;;;;;;1.02;0.65;;;18.80;99.90;;;;;;5044770;28;20084;-75
2023/07/09 06:10:57;;;;;;;1.52;0.80;;;18.80;99.90;;;;;;5028028;28;20098;-74
2023/07/09 06:13:24;;;;;;;1.23;0.82;;;18.80;99.90;;;;;;5010333;28;20057;-75
2023/07/09 06:15:52;;;;;;;1.38;0.82;;;18.80;99.90;;;;;;5027965;28;20136;-74
2023/07/09 06:18:20;;;;;;;1.15;0.80;;;18.80;99.90;;;;;;5028174;28;20080;-74
2023/07/09 06:20:50;;;;;;;0.80;0.55;;;18.70;99.90;;;;;;5045308;28;20079;-74
2023/07/09 06:23:18;;;;;;;0.55;0.52;;;18.70;99.90;;;;;;5025746;28;20110;-74
2023/07/09 06:25:47;;;;;;;1.85;0.70;;;18.70;99.90;;;;;;5041999;28;20079;-75
2023/07/09 06:28:15;;;;;;;1.05;0.60;;;18.70;99.90;;;;;;5024410;28;20083;-75
2023/07/09 06:30:42;;;;;;;0.75;0.50;;;18.70;99.90;;;;;;5027121;28;20076;-75
2023/07/09 06:33:10;;;;;;;2.17;0.70;;;18.80;99.90;;;;;;5010299;28;20734;-75
2023/07/09 06:35:37;;;;;;;1.77;0.77;;;18.70;99.90;;;;;;5025967;28;20067;-74
2023/07/09 06:38:04;;;;;;;1.92;0.77;;;18.80;99.90;;;;;;5010061;28;20056;-74
2023/07/09 06:40:31;;;;;;;1.48;0.65;;;18.80;99.90;;;;;;5016992;28;20104;-74
2023/07/09 06:42:57;;;;;;;1.17;0.60;;;18.90;99.90;;;;;;5026458;28;20519;-74
2023/07/09 06:45:24;;;;;;;0.75;0.60;;;19.00;99.90;;;;;;5027489;28;20044;-75
2023/07/09 06:47:51;;;;;;;0.95;0.70;;;19.10;99.90;;;;;;5027208;28;20144;-74
2023/07/09 06:50:18;;;;;;;1.15;0.75;;;19.20;99.90;;;;;;5044481;28;20076;-74
2023/07/09 06:52:45;;;;;;;1.60;0.85;;;19.30;99.90;;;;;;5008487;28;20053;-74
2023/07/09 06:55:12;;;;;;;1.23;0.60;;;19.40;99.90;;;;;;4981247;28;20053;-75
2023/07/09 06:57:39;;;;;;;0.57;0.50;;;19.50;99.90;;;;;;5020874;28;20175;-74
2023/07/09 07:00:07;;;;;;;1.05;0.50;;;19.50;99.90;;;;;;5021283;28;20044;-75
2023/07/09 07:02:34;;;;;;;0.93;0.65;;;19.50;99.90;;;;;;5010178;28;20562;-75
2023/07/09 07:05:01;;;;;;;1.45;0.70;;;19.40;99.90;;;;;;5022056;28;20041;-74
2023/07/09 07:07:27;;;;;;;1.45;0.70;;;19.40;99.90;;;;;;5008142;28;20102;-74
2023/07/09 07:09:54;;;;;;;1.45;0.77;;;19.30;99.90;;;;;;5020642;28;20151;-74
2023/07/09 07:12:27;;;;;;;3.10;0.88;;;19.30;99.90;;;;;;5040464;28;20076;-74
2023/07/09 07:14:54;;;;;;;0.77;0.55;;;19.30;99.90;;;;;;5022957;28;20045;-73
2023/07/09 07:17:21;;;;;;;0.95;0.70;;;19.30;99.90;;;;;;5024191;28;20049;-74
2023/07/09 07:19:49;;;;;;;0.98;0.47;;;19.30;99.90;;;;;;5025493;28;20048;-73
2023/07/09 07:22:16;;;;;;;1.10;0.57;;;19.50;99.90;;;;;;5024906;28;20044;-73
2023/07/09 07:24:43;;;;;;;0.82;0.60;;;19.60;99.90;;;;;;5025738;28;20544;-74
2023/07/09 07:27:10;;;;;;;1.08;0.57;;;19.70;99.90;;;;;;5022888;28;20102;-74
2023/07/09 07:29:37;;;;;;;0.57;0.40;;;19.70;99.90;;;;;;5044033;28;20068;-74
2023/07/09 07:32:04;;;;;;;1.73;0.80;;;19.70;99.90;;;;;;5043724;28;20114;-74
2023/07/09 07:34:31;;;;;;;0.85;0.50;;;19.80;99.90;;;;;;5042925;28;20057;-74
2023/07/09 07:36:58;;;;;;;1.50;0.70;;;19.80;99.90;;;;;;5043681;28;20148;-75
2023/07/09 07:39:25;;;;;;;1.88;0.60;;;19.90;99.90;;;;;;5020421;28;20484;-74
2023/07/09 07:41:52;;;;;;;2.65;0.90;;;20.00;99.90;;;;;;5042033;28;20190;-74
2023/07/09 07:44:18;;;;;;;0.93;0.70;;;20.20;99.90;;;;;;5023937;28;20069;-74
2023/07/09 07:46:45;;;;;;;1.20;0.60;;;20.30;99.90;;;;;;5043552;28;20118;-74
2023/07/09 07:49:12;;;;;;;0.73;0.50;;;20.40;99.90;;;;;;5041328;28;20059;-74
2023/07/09 07:51:39;;;;;;;1.10;0.50;;;20.60;99.90;;;;;;5042588;28;20049;-75
2023/07/09 07:54:06;;;;;;;0.85;0.50;;;20.70;99.90;;;;;;5022776;28;20056;-74
2023/07/09 07:56:33;;;;;;;1.27;0.50;;;20.70;99.90;;;;;;5022599;28;20512;-75
2023/07/09 07:58:59;;;;;;;0.63;0.50;;;20.80;99.90;;;;;;5043501;28;20396;-74
2023/07/09 08:01:26;;;;;;;1.02;0.55;;;20.90;99.90;;;;;;5038703;28;20484;-75
2023/07/09 08:03:53;;;;;;;1.17;0.52;;;21.00;99.90;;;;;;5038055;28;20500;-74
2023/07/09 08:06:21;;;;;;;0.80;0.60;;;21.20;99.90;;;;;;5043716;28;20075;-74
2023/07/09 08:08:48;;;;;;;0.60;0.50;;;21.40;99.90;;;;;;5042060;28;20092;-73
2023/07/09 08:11:14;;;;;;;1.05;0.65;;;21.50;99.90;;;;;;5023655;28;20175;-74
2023/07/09 08:13:41;;;;;;;0.80;0.60;;;21.60;99.90;;;;;;5008852;28;20087;-74
2023/07/09 08:16:08;;;;;;;1.13;0.82;;;21.80;99.90;;;;;;5042969;28;20403;-74
2023/07/09 08:18:36;;;;;;;0.77;0.60;;;21.80;99.90;;;;;;5040014;28;20053;-75
2023/07/09 08:21:03;;;;;;;2.33;0.80;;;21.90;99.90;;;;;;5031201;28;20056;-75
2023/07/09 08:23:30;;;;;;;1.13;0.65;;;22.10;99.90;;;;;;5045548;28;20475;-75
2023/07/09 08:25:59;;;;;;;0.60;0.40;;;22.10;99.90;;;;;;5040456;28;20504;-75
2023/07/09 08:28:26;;;;;;;0.73;0.40;;;22.00;99.90;;;;;;5024058;28;20048;-75
2023/07/09 08:30:54;;;;;;;0.88;0.50;;;21.90;99.90;;;;;;5042059;28;20433;-75
2023/07/09 08:33:21;;;;;;;0.93;0.60;;;21.70;99.90;;;;;;5024643;28;20052;-75
2023/07/09 08:35:51;;;;;;;0.55;0.50;;;21.60;99.90;;;;;;5042343;28;20122;-74
2023/07/09 08:38:18;;;;;;;0.50;0.50;;;21.60;99.90;;;;;;5038089;28;20056;-75
2023/07/09 08:41:16;;;;;;;0.98;0.45;;;21.50;99.90;;;;;;5023099;28;20663;-75
2023/07/09 08:44:17;;;;;;;0.52;0.40;;;21.40;99.90;;;;;;5002026;28;20646;-75
2023/07/09 08:47:05;;;;;;;0.80;0.40;;;21.30;99.90;;;;;;5022554;28;20053;-74
2023/07/09 08:49:43;;;;;;;1.17;0.73;;;21.30;99.90;;;;;;5001332;28;20110;-75
2023/07/09 08:52:33;;;;;;;0.95;0.55;;;21.30;99.90;;;;;;5023237;28;20052;-75
2023/07/09 08:55:04;;;;;;;0.68;0.57;;;21.40;99.90;;;;;;5027216;28;20102;-75
2023/07/09 08:57:37;;;;;;;1.60;0.70;;;21.60;99.90;;;;;;5000135;28;20424;-76
2023/07/09 09:00:29;;;;;;;1.35;0.70;;;21.60;99.90;;;;;;5006103;28;20049;-76
2023/07/09 09:02:58;;;;;;;0.95;0.65;;;21.80;99.90;;;;;;5007114;28;20052;-77
2023/07/09 09:05:25;;;;;;;1.00;0.63;;;21.80;99.90;;;;;;5022451;28;20049;-77
2023/07/09 09:08:12;;;;;;;0.85;0.50;;;21.90;99.90;;;;;;5024098;28;20053;-78
2023/07/09 09:10:49;;;;;;;0.70;0.45;;;22.00;99.90;;;;;;5025903;28;20045;-78
2023/07/09 09:13:16;;;;;;;1.83;0.50;;;22.10;99.90;;;;;;5025021;28;20136;-78
2023/07/09 09:15:45;;;;;;;1.77;1.00;;;22.20;99.90;;;;;;5025359;28;20045;-77
2023/07/09 09:18:18;;;;;;;;;;;22.20;99.90;;;;;;5030297;28;20052;-77
2023/07/09 09:20:56;;;;;;;0.95;0.50;;;22.20;99.90;;;;;;5029444;28;19929;-77
2023/07/09 09:23:24;;;;;;;0.73;0.40;;;22.30;99.90;;;;;;5030530;28;20067;-77
2023/07/09 09:25:55;;;;;;;1.08;0.60;;;22.30;99.90;;;;;;5028921;28;20060;-78
2023/07/09 09:28:39;;;;;;;0.60;0.38;;;22.30;99.90;;;;;;5031740;28;20094;-77
2023/07/09 09:31:10;;;;;;;1.15;0.50;;;22.30;99.90;;;;;;5047087;28;20049;-77
2023/07/09 09:33:45;;;;;;;1.45;0.50;;;22.40;99.90;;;;;;5029256;28;20477;-78
2023/07/09 09:36:25;;;;;;;1.50;0.98;;;22.50;99.90;;;;;;5046282;28;20099;-78
2023/07/09 09:38:52;;;;;;;1.80;1.20;;;22.60;99.90;;;;;;5028979;28;20045;-78
2023/07/09 09:41:21;;;;;;;1.75;0.90;;;22.70;99.90;;;;;;5046579;28;20045;-77
2023/07/09 09:43:49;;;;;;;1.20;0.75;;;22.70;99.90;;;;;;5027943;28;20434;-78
2023/07/09 09:46:22;;;;;;;1.00;0.60;;;22.80;99.90;;;;;;5028571;28;20052;-78
2023/07/09 09:48:50;;;;;;;1.00;0.90;;;22.90;99.90;;;;;;5024959;28;20539;-79
2023/07/09 09:51:17;;;;;;;0.95;0.80;;;23.00;99.90;;;;;;5023977;28;20049;-78
2023/07/09 09:53:58;;;;;;;0.77;0.65;;;23.10;99.90;;;;;;5044751;28;20091;-80
2023/07/09 09:56:26;;;;;;;0.75;0.60;;;23.00;99.90;;;;;;5028782;28;20487;-77
2023/07/09 09:58:54;;;;;;;0.77;0.50;;;23.00;99.90;;;;;;5026505;28;20052;-78
2023/07/09 10:01:26;;;;;;;1.08;0.60;;;23.10;99.90;;;;;;5027996;28;20052;-79
2023/07/09 10:03:55;;;;;;;0.53;0.50;;;23.10;99.90;;;;;;5044610;28;20041;-77
2023/07/09 10:06:38;;;;;;;1.20;0.65;;;23.10;99.90;;;;;;5024221;28;20471;-77
2023/07/09 10:09:13;;;;;;;;;;;23.10;99.90;;;;;;5041927;28;20056;-77
2023/07/09 10:12:07;;;;;;;0.82;0.38;;;23.30;99.30;;;;;;5026436;28;19921;-77
2023/07/09 10:15:00;;;;;;;0.47;0.40;;;23.40;99.20;;;;;;5020399;28;20048;-77
2023/07/09 10:17:30;;;;;;;;;;;23.70;98.60;;;;;;5022792;28;20065;-78
2023/07/09 10:20:15;;;;;;;1.05;0.52;;;23.90;98.30;;;;;;5045328;28;20012;-77
2023/07/09 10:22:50;;;;;;;1.17;0.60;;;24.00;98.30;;;;;;5026697;28;20060;-77
2023/07/09 10:25:29;;;;;;;1.45;0.88;;;24.10;97.60;;;;;;5044536;28;20045;-77
2023/07/09 10:28:08;;;;;;;2.92;1.23;;;24.10;97.50;;;;;;5027162;28;20120;-77
2023/07/09 10:31:06;;;;;;;1.73;1.20;;;24.00;97.50;;;;;;5041309;28;20064;-76
2023/07/09 10:33:53;;;;;;;1.30;0.80;;;23.90;96.60;;;;;;5018228;28;20049;-77
2023/07/09 10:36:33;;;;;;;0.63;0.55;;;23.80;97.10;;;;;;5042872;28;20046;-77
2023/07/09 10:39:22;;;;;;;0.98;0.60;;;23.80;97.40;;;;;;5025995;28;20044;-77
2023/07/09 10:41:49;;;;;;;2.35;1.20;;;23.90;97.80;;;;;;5025358;28;20057;-76
2023/07/09 10:44:24;;;;;;;1.55;0.90;;;24.00;96.10;;;;;;5024748;28;20049;-76
2023/07/09 10:46:58;;;;;;;2.72;1.63;;;24.20;96.60;;;;;;5011326;28;20433;-77
2023/07/09 10:49:30;;;;;;;1.30;1.00;;;24.40;96.50;;;;;;5043468;28;20076;-77
2023/07/09 10:52:13;;;;;;;1.50;1.10;;;24.60;96.50;;;;;;5028535;28;20053;-76
2023/07/09 10:54:56;;;;;;;1.17;0.70;;;24.70;95.50;;;;;;5030792;28;20119;-77
2023/07/09 10:57:34;;;;;;;2.08;0.80;;;24.80;94.50;;;;;;5027511;28;20049;-78
2023/07/09 11:00:02;;;;;;;1.45;0.70;;;24.70;94.80;;;;;;5020725;28;20130;-78
2023/07/09 11:02:34;;;;;;;1.35;0.60;;;24.50;95.30;;;;;;5020738;28;20397;-77
2023/07/09 11:05:03;;;;;;;0.90;0.55;;;24.50;95.70;;;;;;5003109;28;20488;-77
2023/07/09 11:07:33;;;;;;;0.90;0.47;;;24.50;95.80;;;;;;5000923;28;20067;-77
2023/07/09 11:10:01;;;;;;;1.23;0.60;;;24.70;95.90;;;;;;5018269;28;20978;-77
2023/07/09 11:12:33;;;;;;;1.27;0.73;;;24.60;95.50;;;;;;5013125;28;22150;-77
2023/07/09 11:15:11;;;;;;;1.02;0.52;;;24.60;95.80;;;;;;5021228;28;20524;-76
2023/07/09 11:17:42;;;;;;;0.65;0.50;;;24.70;95.90;;;;;;5013889;28;20722;-76
2023/07/09 11:20:27;;;;;;;0.68;0.40;;;24.70;95.50;;;;;;5019976;28;20071;-77
2023/07/09 11:23:03;;;;;;;1.08;0.50;;;24.80;96.80;;;;;;5021888;28;20056;-77
2023/07/09 11:25:47;;;;;;;1.02;0.60;;;24.80;96.20;;;;;;5001254;28;20160;-77
2023/07/09 11:28:14;;;;;;;0.70;0.40;;;24.90;96.20;;;;;;5034668;28;20656;-78
2023/07/09 11:30:54;;;;;;;0.73;0.50;;;25.00;96.00;;;;;;5034736;28;20116;-77
2023/07/09 11:33:30;;;;;;;1.13;0.80;;;24.90;96.10;;;;;;5018783;28;20110;-78
2023/07/09 11:36:07;;;;;;;0.82;0.70;;;25.00;96.70;;;;;;5034693;28;20159;-77
2023/07/09 11:38:42;;;;;;;0.75;0.50;;;25.10;95.90;;;;;;5038683;28;20083;-77
2023/07/09 11:41:37;;;;;;;1.23;0.80;;;25.20;95.80;;;;;;5029927;28;20075;-77
2023/07/09 11:44:17;;;;;;;1.15;0.68;;;25.00;95.80;;;;;;5024225;28;20077;-77
2023/07/09 11:46:54;;;;;;;1.67;0.90;;;24.90;95.90;;;;;;5042528;28;20041;-75
2023/07/09 11:49:22;;;;;;;1.00;0.55;;;24.60;96.30;;;;;;5024921;28;20477;-76
2023/07/09 11:51:52;;;;;;;1.25;0.70;;;24.60;96.80;;;;;;5022722;28;20091;-76
2023/07/09 11:54:19;;;;;;;0.52;0.40;;;24.60;97.40;;;;;;5012319;28;20061;-75
2023/07/09 11:56:56;;;;;;;2.05;0.85;;;24.70;97.10;;;;;;5025844;28;20065;-76
2023/07/09 11:59:23;;;;;;;1.67;0.88;;;24.60;97.30;;;;;;5028325;28;20051;-75
2023/07/09 12:01:52;;;;;;;1.20;0.65;;;24.70;96.90;;;;;;5007209;28;20041;-75
2023/07/09 12:04:20;;;;;;;1.08;0.70;;;24.80;97.10;;;;;;5019838;28;20768;-75
2023/07/09 12:06:47;;;;;;;0.63;0.55;;;25.00;97.20;;;;;;5024443;28;20052;-75
2023/07/09 12:09:20;;;;;;;1.83;0.85;;;25.30;97.50;;;;;;5024913;28;20064;-75
2023/07/09 12:11:48;;;;;;;1.13;0.60;;;25.70;96.90;;;;;;5014380;28;20091;-75
2023/07/09 12:14:17;;;;;;;3.70;1.15;;;25.90;96.80;;;;;;5033465;28;20416;-75
2023/07/09 12:16:46;;;;;;;1.70;0.75;;;26.20;96.30;;;;;;5019113;28;20156;-75
2023/07/09 12:19:15;;;;;;;1.50;0.93;;;26.30;96.00;;;;;;5022196;28;20056;-76
2023/07/09 12:21:44;;;;;;;1.58;0.90;;;26.10;95.80;;;;;;5052540;28;20140;-74
2023/07/09 12:24:19;;;;;;;1.65;1.08;;;26.20;96.20;;;;;;5018588;28;20163;-76
2023/07/09 12:26:52;;;;;;;1.45;0.98;;;26.40;95.60;;;;;;5018516;28;20053;-74
2023/07/09 12:29:19;;;;;;;0.98;0.60;;;26.40;96.30;;;;;;5020035;28;20245;-75
2023/07/09 12:31:46;;;;;;;1.35;0.82;;;26.60;95.60;;;;;;5038183;28;20060;-75
2023/07/09 12:34:14;;;;;;;1.30;0.75;;;26.80;95.20;;;;;;5035892;28;20569;-75
2023/07/09 12:36:48;;;;;;;1.25;0.77;;;26.90;95.40;;;;;;5027302;28;20094;-75
2023/07/09 12:39:16;;;;;;;1.15;0.77;;;27.10;95.80;;;;;;5036227;28;20057;-75
2023/07/09 12:41:44;;;;;;;1.40;0.95;;;26.90;94.90;;;;;;5015634;28;20516;-75
2023/07/09 12:44:19;;;;;;;0.65;0.45;;;26.70;95.80;;;;;;5001652;28;20076;-75
2023/07/09 12:46:46;;;;;;;1.65;1.00;;;26.60;95.70;;;;;;5014780;28;20049;-75
2023/07/09 12:49:31;;;;;;;1.67;0.70;;;26.40;95.80;;;;;;4996824;28;20055;-74
2023/07/09 12:51:58;;;;;;;1.48;0.70;;;26.10;95.80;;;;;;5037660;28;20049;-75
2023/07/09 12:54:27;;;;;;;1.30;0.70;;;25.90;96.10;;;;;;5016571;28;20048;-75
2023/07/09 12:56:54;;;;;;;1.38;0.80;;;25.60;96.90;;;;;;5004029;28;20049;-75
2023/07/09 12:59:24;;;;;;;1.08;0.75;;;25.30;96.90;;;;;;4991176;28;20164;-75
2023/07/09 13:02:14;;;;;;;1.20;0.70;;;25.10;97.20;;;;;;5015318;28;20049;-75